sensor_id;sensor_type;location;lat;lon;timestamp;temperature;humidity
7790;DHT22;3939;57.130;-2.086;2022-10-30T00:08:29;14.10;99.90
7790;DHT22;3939;57.130;-2.086;2022-10-30T00:11:20;14.00;99.90
7790;DHT22;3939;57.130;-2.086;2022-10-30T00:28:16;14.00;99.90
7790;DHT22;3939;57.130;-2.086;2022-10-30T01:05:35;13.60;99.90
7790;DHT22;3939;57.130;-2.086;2022-10-30T02:54:35;13.00;99.90
7790;DHT22;3939;57.130;-2.086;2022-10-30T04:13:17;12.40;99.90
7790;DHT22;3939;57.130;-2.086;2022-10-30T04:15:46;12.40;99.90
7790;DHT22;3939;57.130;-2.086;2022-10-30T04:18:13;12.40;99.90
7790;DHT22;3939;57.130;-2.086;2022-10-30T04:20:41;12.40;99.90
7790;DHT22;3939;57.130;-2.086;2022-10-30T04:23:11;12.40;99.90
7790;DHT22;3939;57.130;-2.086;2022-10-30T04:25:38;12.40;99.90
7790;DHT22;3939;57.130;-2.086;2022-10-30T04:28:03;12.40;99.90
7790;DHT22;3939;57.130;-2.086;2022-10-30T04:30:29;12.40;99.90
7790;DHT22;3939;57.130;-2.086;2022-10-30T04:33:00;12.40;99.90
7790;DHT22;3939;57.130;-2.086;2022-10-30T04:35:29;12.40;99.90
7790;DHT22;3939;57.130;-2.086;2022-10-30T04:37:57;12.40;99.90
7790;DHT22;3939;57.130;-2.086;2022-10-30T04:40:25;12.40;99.90
7790;DHT22;3939;57.130;-2.086;2022-10-30T04:42:51;12.50;99.90
7790;DHT22;3939;57.130;-2.086;2022-10-30T04:45:17;12.50;99.90
7790;DHT22;3939;57.130;-2.086;2022-10-30T04:47:43;12.50;99.90
7790;DHT22;3939;57.130;-2.086;2022-10-30T04:50:09;12.50;99.90
7790;DHT22;3939;57.130;-2.086;2022-10-30T04:52:34;12.40;99.90
7790;DHT22;3939;57.130;-2.086;2022-10-30T04:55:00;12.40;99.90
7790;DHT22;3939;57.130;-2.086;2022-10-30T04:57:26;12.40;99.90
7790;DHT22;3939;57.130;-2.086;2022-10-30T04:59:52;12.40;99.90
7790;DHT22;3939;57.130;-2.086;2022-10-30T05:02:17;12.40;99.90
7790;DHT22;3939;57.130;-2.086;2022-10-30T05:04:46;12.30;99.90
7790;DHT22;3939;57.130;-2.086;2022-10-30T05:07:12;12.30;99.90
7790;DHT22;3939;57.130;-2.086;2022-10-30T05:09:38;12.30;99.90
7790;DHT22;3939;57.130;-2.086;2022-10-30T05:12:04;12.30;99.90
7790;DHT22;3939;57.130;-2.086;2022-10-30T05:14:30;12.30;99.90
7790;DHT22;3939;57.130;-2.086;2022-10-30T05:16:56;12.30;99.90
7790;DHT22;3939;57.130;-2.086;2022-10-30T05:19:22;12.30;99.90
7790;DHT22;3939;57.130;-2.086;2022-10-30T05:21:48;12.30;99.90
7790;DHT22;3939;57.130;-2.086;2022-10-30T05:24:15;12.30;99.90
7790;DHT22;3939;57.130;-2.086;2022-10-30T05:26:40;12.30;99.90
7790;DHT22;3939;57.130;-2.086;2022-10-30T05:29:06;12.30;99.90
7790;DHT22;3939;57.130;-2.086;2022-10-30T05:31:32;12.30;99.90
7790;DHT22;3939;57.130;-2.086;2022-10-30T05:33:58;12.30;99.90
7790;DHT22;3939;57.130;-2.086;2022-10-30T05:36:24;12.30;99.90
7790;DHT22;3939;57.130;-2.086;2022-10-30T05:38:49;12.30;99.90
7790;DHT22;3939;57.130;-2.086;2022-10-30T05:41:15;12.30;99.90
7790;DHT22;3939;57.130;-2.086;2022-10-30T05:43:41;12.30;99.90
7790;DHT22;3939;57.130;-2.086;2022-10-30T05:46:06;12.30;99.90
7790;DHT22;3939;57.130;-2.086;2022-10-30T05:48:32;12.30;99.90
7790;DHT22;3939;57.130;-2.086;2022-10-30T05:50:58;12.30;99.90
7790;DHT22;3939;57.130;-2.086;2022-10-30T05:53:24;12.30;99.90
7790;DHT22;3939;57.130;-2.086;2022-10-30T05:55:50;12.30;99.90
7790;DHT22;3939;57.130;-2.086;2022-10-30T05:58:16;12.30;99.90
7790;DHT22;3939;57.130;-2.086;2022-10-30T06:00:42;12.30;99.90
7790;DHT22;3939;57.130;-2.086;2022-10-30T06:03:12;12.20;99.90
7790;DHT22;3939;57.130;-2.086;2022-10-30T06:05:38;12.20;99.90
7790;DHT22;3939;57.130;-2.086;2022-10-30T06:08:05;12.20;99.90
7790;DHT22;3939;57.130;-2.086;2022-10-30T06:10:32;12.30;99.90
7790;DHT22;3939;57.130;-2.086;2022-10-30T06:13:02;12.30;99.90
7790;DHT22;3939;57.130;-2.086;2022-10-30T06:15:29;12.40;99.90
7790;DHT22;3939;57.130;-2.086;2022-10-30T06:17:55;12.50;99.90
7790;DHT22;3939;57.130;-2.086;2022-10-30T06:20:23;12.60;99.90
7790;DHT22;3939;57.130;-2.086;2022-10-30T06:22:55;12.70;99.90
7790;DHT22;3939;57.130;-2.086;2022-10-30T06:25:21;12.70;99.90
7790;DHT22;3939;57.130;-2.086;2022-10-30T06:27:47;12.80;99.90
7790;DHT22;3939;57.130;-2.086;2022-10-30T06:30:12;12.80;99.90
7790;DHT22;3939;57.130;-2.086;2022-10-30T06:32:38;12.80;99.90
7790;DHT22;3939;57.130;-2.086;2022-10-30T06:35:04;12.80;99.90
7790;DHT22;3939;57.130;-2.086;2022-10-30T06:37:30;12.80;99.90
7790;DHT22;3939;57.130;-2.086;2022-10-30T06:39:55;12.90;99.90
7790;DHT22;3939;57.130;-2.086;2022-10-30T06:42:21;12.90;99.90
7790;DHT22;3939;57.130;-2.086;2022-10-30T06:44:47;12.90;99.90
7790;DHT22;3939;57.130;-2.086;2022-10-30T06:47:14;12.90;99.90
7790;DHT22;3939;57.130;-2.086;2022-10-30T06:49:39;12.90;99.90
7790;DHT22;3939;57.130;-2.086;2022-10-30T06:52:05;12.90;99.90
7790;DHT22;3939;57.130;-2.086;2022-10-30T06:54:31;12.90;99.90
7790;DHT22;3939;57.130;-2.086;2022-10-30T06:56:56;12.80;99.90
7790;DHT22;3939;57.130;-2.086;2022-10-30T06:59:22;12.90;99.90
7790;DHT22;3939;57.130;-2.086;2022-10-30T07:01:53;12.80;99.90
7790;DHT22;3939;57.130;-2.086;2022-10-30T07:04:19;12.80;99.90
7790;DHT22;3939;57.130;-2.086;2022-10-30T07:06:45;12.80;99.90
7790;DHT22;3939;57.130;-2.086;2022-10-30T07:09:10;12.80;99.90
7790;DHT22;3939;57.130;-2.086;2022-10-30T07:11:36;12.80;99.90
7790;DHT22;3939;57.130;-2.086;2022-10-30T07:14:02;12.80;99.90
7790;DHT22;3939;57.130;-2.086;2022-10-30T07:16:27;12.70;99.90
7790;DHT22;3939;57.130;-2.086;2022-10-30T07:18:53;12.80;99.90
7790;DHT22;3939;57.130;-2.086;2022-10-30T07:21:20;12.80;99.90
7790;DHT22;3939;57.130;-2.086;2022-10-30T07:23:46;12.80;99.90
7790;DHT22;3939;57.130;-2.086;2022-10-30T07:26:11;12.80;99.90
7790;DHT22;3939;57.130;-2.086;2022-10-30T07:28:37;12.90;99.90
7790;DHT22;3939;57.130;-2.086;2022-10-30T07:31:03;12.90;99.90
7790;DHT22;3939;57.130;-2.086;2022-10-30T07:33:28;13.00;99.90
7790;DHT22;3939;57.130;-2.086;2022-10-30T07:35:54;13.00;99.90
7790;DHT22;3939;57.130;-2.086;2022-10-30T07:38:20;13.00;99.90
7790;DHT22;3939;57.130;-2.086;2022-10-30T07:40:51;13.10;99.90
7790;DHT22;3939;57.130;-2.086;2022-10-30T07:43:17;13.10;99.90
7790;DHT22;3939;57.130;-2.086;2022-10-30T07:45:46;13.20;99.90
7790;DHT22;3939;57.130;-2.086;2022-10-30T07:48:17;13.20;99.90
7790;DHT22;3939;57.130;-2.086;2022-10-30T07:50:46;13.30;99.90
7790;DHT22;3939;57.130;-2.086;2022-10-30T07:53:12;13.40;99.90
7790;DHT22;3939;57.130;-2.086;2022-10-30T07:55:37;13.40;99.90
7790;DHT22;3939;57.130;-2.086;2022-10-30T07:58:03;13.50;99.90
7790;DHT22;3939;57.130;-2.086;2022-10-30T08:00:29;13.50;99.90
7790;DHT22;3939;57.130;-2.086;2022-10-30T08:02:55;13.50;99.90
7790;DHT22;3939;57.130;-2.086;2022-10-30T08:05:21;13.60;99.90
7790;DHT22;3939;57.130;-2.086;2022-10-30T08:07:47;13.50;99.90
7790;DHT22;3939;57.130;-2.086;2022-10-30T08:10:13;13.50;99.90
7790;DHT22;3939;57.130;-2.086;2022-10-30T08:12:39;13.50;99.90
7790;DHT22;3939;57.130;-2.086;2022-10-30T08:15:07;13.50;99.90
7790;DHT22;3939;57.130;-2.086;2022-10-30T08:17:39;13.50;99.90
7790;DHT22;3939;57.130;-2.086;2022-10-30T08:20:06;13.50;99.90
7790;DHT22;3939;57.130;-2.086;2022-10-30T08:22:32;13.50;99.90
7790;DHT22;3939;57.130;-2.086;2022-10-30T08:24:57;13.50;99.90
7790;DHT22;3939;57.130;-2.086;2022-10-30T08:27:23;13.50;99.90
7790;DHT22;3939;57.130;-2.086;2022-10-30T08:29:48;13.50;99.90
7790;DHT22;3939;57.130;-2.086;2022-10-30T08:32:14;13.50;99.90
7790;DHT22;3939;57.130;-2.086;2022-10-30T08:34:40;13.50;99.90
7790;DHT22;3939;57.130;-2.086;2022-10-30T08:37:05;13.60;99.90
7790;DHT22;3939;57.130;-2.086;2022-10-30T08:39:32;13.60;99.90
7790;DHT22;3939;57.130;-2.086;2022-10-30T08:41:58;13.70;99.90
7790;DHT22;3939;57.130;-2.086;2022-10-30T08:44:24;13.80;99.90
7790;DHT22;3939;57.130;-2.086;2022-10-30T08:46:50;13.80;99.90
7790;DHT22;3939;57.130;-2.086;2022-10-30T08:49:16;13.90;99.90
7790;DHT22;3939;57.130;-2.086;2022-10-30T08:51:41;13.90;99.90
7790;DHT22;3939;57.130;-2.086;2022-10-30T08:54:08;13.90;99.90
7790;DHT22;3939;57.130;-2.086;2022-10-30T08:56:34;13.90;99.90
7790;DHT22;3939;57.130;-2.086;2022-10-30T08:59:00;13.80;99.90
7790;DHT22;3939;57.130;-2.086;2022-10-30T09:01:26;13.90;99.90
7790;DHT22;3939;57.130;-2.086;2022-10-30T09:03:51;13.90;99.90
7790;DHT22;3939;57.130;-2.086;2022-10-30T09:06:17;13.80;99.90
7790;DHT22;3939;57.130;-2.086;2022-10-30T09:08:43;13.90;99.90
7790;DHT22;3939;57.130;-2.086;2022-10-30T09:11:13;13.80;99.90
7790;DHT22;3939;57.130;-2.086;2022-10-30T09:13:38;13.80;99.90
7790;DHT22;3939;57.130;-2.086;2022-10-30T09:16:04;13.80;99.90
7790;DHT22;3939;57.130;-2.086;2022-10-30T09:18:30;13.80;99.90
7790;DHT22;3939;57.130;-2.086;2022-10-30T09:20:56;13.90;99.90
7790;DHT22;3939;57.130;-2.086;2022-10-30T09:23:22;14.00;99.90
7790;DHT22;3939;57.130;-2.086;2022-10-30T09:25:47;14.10;99.90
7790;DHT22;3939;57.130;-2.086;2022-10-30T09:28:13;14.20;99.90
7790;DHT22;3939;57.130;-2.086;2022-10-30T09:30:39;14.30;99.90
7790;DHT22;3939;57.130;-2.086;2022-10-30T09:33:04;14.30;99.90
7790;DHT22;3939;57.130;-2.086;2022-10-30T09:35:30;14.30;99.90
7790;DHT22;3939;57.130;-2.086;2022-10-30T09:37:57;14.40;99.90
7790;DHT22;3939;57.130;-2.086;2022-10-30T09:40:34;14.40;99.90
7790;DHT22;3939;57.130;-2.086;2022-10-30T09:45:47;14.50;99.90
7790;DHT22;3939;57.130;-2.086;2022-10-30T09:51:09;14.50;99.90
7790;DHT22;3939;57.130;-2.086;2022-10-30T09:54:03;14.50;99.90
7790;DHT22;3939;57.130;-2.086;2022-10-30T09:56:46;14.60;99.90
7790;DHT22;3939;57.130;-2.086;2022-10-30T09:59:30;14.60;99.90
7790;DHT22;3939;57.130;-2.086;2022-10-30T10:02:13;14.60;99.90
7790;DHT22;3939;57.130;-2.086;2022-10-30T10:04:52;14.60;99.90
7790;DHT22;3939;57.130;-2.086;2022-10-30T10:07:31;14.70;99.90
7790;DHT22;3939;57.130;-2.086;2022-10-30T10:10:03;14.70;99.90
7790;DHT22;3939;57.130;-2.086;2022-10-30T10:12:38;14.80;99.90
7790;DHT22;3939;57.130;-2.086;2022-10-30T10:15:13;14.80;99.90
7790;DHT22;3939;57.130;-2.086;2022-10-30T10:17:43;14.90;99.90
7790;DHT22;3939;57.130;-2.086;2022-10-30T10:20:16;14.90;99.90
7790;DHT22;3939;57.130;-2.086;2022-10-30T10:22:47;14.90;99.90
7790;DHT22;3939;57.130;-2.086;2022-10-30T10:25:16;15.00;99.90
7790;DHT22;3939;57.130;-2.086;2022-10-30T10:30:23;15.10;99.90
7790;DHT22;3939;57.130;-2.086;2022-10-30T10:38:35;15.20;99.90
7790;DHT22;3939;57.130;-2.086;2022-10-30T10:51:39;15.30;99.90
7790;DHT22;3939;57.130;-2.086;2022-10-30T10:54:13;15.30;99.90
7790;DHT22;3939;57.130;-2.086;2022-10-30T10:56:43;15.40;99.90
7790;DHT22;3939;57.130;-2.086;2022-10-30T11:04:46;15.50;99.90
7790;DHT22;3939;57.130;-2.086;2022-10-30T11:07:23;15.40;99.90
7790;DHT22;3939;57.130;-2.086;2022-10-30T11:09:53;15.40;99.90
7790;DHT22;3939;57.130;-2.086;2022-10-30T11:12:33;15.50;99.90
7790;DHT22;3939;57.130;-2.086;2022-10-30T11:18:08;15.50;99.90
7790;DHT22;3939;57.130;-2.086;2022-10-30T11:21:03;15.50;99.90
7790;DHT22;3939;57.130;-2.086;2022-10-30T11:23:43;15.40;99.90
7790;DHT22;3939;57.130;-2.086;2022-10-30T11:31:24;15.30;99.90
7790;DHT22;3939;57.130;-2.086;2022-10-30T11:33:52;15.30;99.90
7790;DHT22;3939;57.130;-2.086;2022-10-30T11:36:22;15.30;99.90
7790;DHT22;3939;57.130;-2.086;2022-10-30T11:38:48;15.20;99.90
7790;DHT22;3939;57.130;-2.086;2022-10-30T11:41:14;15.30;99.90
7790;DHT22;3939;57.130;-2.086;2022-10-30T11:43:40;15.20;99.90
7790;DHT22;3939;57.130;-2.086;2022-10-30T11:46:09;15.20;99.90
7790;DHT22;3939;57.130;-2.086;2022-10-30T11:48:43;15.20;99.90
7790;DHT22;3939;57.130;-2.086;2022-10-30T11:51:10;15.10;99.90
7790;DHT22;3939;57.130;-2.086;2022-10-30T11:53:46;15.10;99.90
7790;DHT22;3939;57.130;-2.086;2022-10-30T11:56:19;15.20;99.90
7790;DHT22;3939;57.130;-2.086;2022-10-30T11:58:54;15.20;99.90
7790;DHT22;3939;57.130;-2.086;2022-10-30T12:03:53;15.20;99.90
7790;DHT22;3939;57.130;-2.086;2022-10-30T12:06:27;15.20;99.90
7790;DHT22;3939;57.130;-2.086;2022-10-30T12:09:19;15.20;99.90
7790;DHT22;3939;57.130;-2.086;2022-10-30T12:11:46;15.30;99.90
7790;DHT22;3939;57.130;-2.086;2022-10-30T12:14:23;15.40;99.90
7790;DHT22;3939;57.130;-2.086;2022-10-30T12:16:53;15.60;99.90
7790;DHT22;3939;57.130;-2.086;2022-10-30T12:19:22;15.80;99.90
7790;DHT22;3939;57.130;-2.086;2022-10-30T12:21:50;16.00;99.90
7790;DHT22;3939;57.130;-2.086;2022-10-30T12:24:44;16.10;99.90
7790;DHT22;3939;57.130;-2.086;2022-10-30T12:27:12;16.30;99.90
7790;DHT22;3939;57.130;-2.086;2022-10-30T12:30:06;16.50;99.90
7790;DHT22;3939;57.130;-2.086;2022-10-30T12:32:48;16.90;99.90
7790;DHT22;3939;57.130;-2.086;2022-10-30T12:38:05;18.70;99.90
7790;DHT22;3939;57.130;-2.086;2022-10-30T12:40:39;19.40;99.90
7790;DHT22;3939;57.130;-2.086;2022-10-30T12:43:19;20.00;99.90
7790;DHT22;3939;57.130;-2.086;2022-10-30T12:45:49;20.30;99.90
7790;DHT22;3939;57.130;-2.086;2022-10-30T12:48:34;20.50;99.90
7790;DHT22;3939;57.130;-2.086;2022-10-30T12:51:19;20.50;99.90
7790;DHT22;3939;57.130;-2.086;2022-10-30T12:56:32;20.70;99.90
7790;DHT22;3939;57.130;-2.086;2022-10-30T13:02:10;20.80;99.90
7790;DHT22;3939;57.130;-2.086;2022-10-30T13:04:43;20.80;99.90
7790;DHT22;3939;57.130;-2.086;2022-10-30T13:07:25;21.00;99.90
7790;DHT22;3939;57.130;-2.086;2022-10-30T13:12:50;21.10;99.90
7790;DHT22;3939;57.130;-2.086;2022-10-30T13:17:48;21.00;99.90
7790;DHT22;3939;57.130;-2.086;2022-10-30T13:20:14;20.80;99.90
7790;DHT22;3939;57.130;-2.086;2022-10-30T13:22:51;20.60;99.90
7790;DHT22;3939;57.130;-2.086;2022-10-30T13:25:39;20.10;99.90
7790;DHT22;3939;57.130;-2.086;2022-10-30T13:28:26;19.20;99.90
7790;DHT22;3939;57.130;-2.086;2022-10-30T13:39:44;16.90;99.90
7790;DHT22;3939;57.130;-2.086;2022-10-30T13:42:21;16.60;99.90
7790;DHT22;3939;57.130;-2.086;2022-10-30T13:47:48;16.30;99.90
7790;DHT22;3939;57.130;-2.086;2022-10-30T13:53:25;15.90;99.90
7790;DHT22;3939;57.130;-2.086;2022-10-30T13:55:52;15.80;99.90
7790;DHT22;3939;57.130;-2.086;2022-10-30T13:58:27;15.70;99.90
7790;DHT22;3939;57.130;-2.086;2022-10-30T14:01:01;15.50;99.90
7790;DHT22;3939;57.130;-2.086;2022-10-30T14:10:02;15.60;99.90
7790;DHT22;3939;57.130;-2.086;2022-10-30T14:21:29;15.90;99.90
7790;DHT22;3939;57.130;-2.086;2022-10-30T14:27:32;16.60;99.90
7790;DHT22;3939;57.130;-2.086;2022-10-30T14:30:12;17.10;99.90
7790;DHT22;3939;57.130;-2.086;2022-10-30T14:32:41;17.20;99.90
7790;DHT22;3939;57.130;-2.086;2022-10-30T14:35:58;17.00;99.90
7790;DHT22;3939;57.130;-2.086;2022-10-30T14:38:33;16.70;99.90
7790;DHT22;3939;57.130;-2.086;2022-10-30T14:41:06;16.40;99.90
7790;DHT22;3939;57.130;-2.086;2022-10-30T14:43:51;16.20;99.90
7790;DHT22;3939;57.130;-2.086;2022-10-30T14:46:36;16.00;99.90
7790;DHT22;3939;57.130;-2.086;2022-10-30T15:14:39;16.90;99.90
7790;DHT22;3939;57.130;-2.086;2022-10-30T15:17:15;16.40;99.90
7790;DHT22;3939;57.130;-2.086;2022-10-30T15:19:41;16.20;99.90
7790;DHT22;3939;57.130;-2.086;2022-10-30T15:22:16;15.90;99.90
7790;DHT22;3939;57.130;-2.086;2022-10-30T15:24:42;15.70;99.90
7790;DHT22;3939;57.130;-2.086;2022-10-30T15:27:16;15.60;99.90
7790;DHT22;3939;57.130;-2.086;2022-10-30T15:30:05;15.50;99.90
7790;DHT22;3939;57.130;-2.086;2022-10-30T15:32:31;15.40;99.90
7790;DHT22;3939;57.130;-2.086;2022-10-30T15:35:01;15.30;99.90
7790;DHT22;3939;57.130;-2.086;2022-10-30T15:37:30;15.10;99.90
7790;DHT22;3939;57.130;-2.086;2022-10-30T15:40:17;15.00;99.90
7790;DHT22;3939;57.130;-2.086;2022-10-30T15:42:44;14.90;99.90
7790;DHT22;3939;57.130;-2.086;2022-10-30T15:51:02;14.70;99.90
7790;DHT22;3939;57.130;-2.086;2022-10-30T15:56:36;14.60;99.90
7790;DHT22;3939;57.130;-2.086;2022-10-30T15:59:15;14.50;99.90
7790;DHT22;3939;57.130;-2.086;2022-10-30T16:01:43;14.60;99.90
7790;DHT22;3939;57.130;-2.086;2022-10-30T16:04:16;14.60;99.90
7790;DHT22;3939;57.130;-2.086;2022-10-30T16:06:56;14.60;99.90
7790;DHT22;3939;57.130;-2.086;2022-10-30T16:09:23;14.60;99.90
7790;DHT22;3939;57.130;-2.086;2022-10-30T16:11:51;14.70;99.90
7790;DHT22;3939;57.130;-2.086;2022-10-30T16:14:28;14.70;99.90
7790;DHT22;3939;57.130;-2.086;2022-10-30T16:16:58;14.70;99.90
7790;DHT22;3939;57.130;-2.086;2022-10-30T16:19:30;14.70;99.90
7790;DHT22;3939;57.130;-2.086;2022-10-30T16:22:02;14.70;99.90
7790;DHT22;3939;57.130;-2.086;2022-10-30T16:24:33;14.70;99.90
7790;DHT22;3939;57.130;-2.086;2022-10-30T16:27:26;14.70;99.90
7790;DHT22;3939;57.130;-2.086;2022-10-30T16:29:57;14.70;99.90
7790;DHT22;3939;57.130;-2.086;2022-10-30T16:32:28;14.70;99.90
7790;DHT22;3939;57.130;-2.086;2022-10-30T16:34:59;14.70;99.90
7790;DHT22;3939;57.130;-2.086;2022-10-30T16:37:38;14.70;99.90
7790;DHT22;3939;57.130;-2.086;2022-10-30T16:40:17;14.60;99.90
7790;DHT22;3939;57.130;-2.086;2022-10-30T16:43:03;14.60;99.90
7790;DHT22;3939;57.130;-2.086;2022-10-30T16:48:06;14.50;99.90
7790;DHT22;3939;57.130;-2.086;2022-10-30T16:50:37;14.50;99.90
7790;DHT22;3939;57.130;-2.086;2022-10-30T16:53:22;14.50;99.90
7790;DHT22;3939;57.130;-2.086;2022-10-30T16:55:49;14.40;99.90
7790;DHT22;3939;57.130;-2.086;2022-10-30T16:58:16;14.40;99.90
7790;DHT22;3939;57.130;-2.086;2022-10-30T17:00:51;14.30;99.90
7790;DHT22;3939;57.130;-2.086;2022-10-30T17:03:19;14.30;99.90
7790;DHT22;3939;57.130;-2.086;2022-10-30T17:06:04;14.30;99.90
7790;DHT22;3939;57.130;-2.086;2022-10-30T17:08:39;14.20;99.90
7790;DHT22;3939;57.130;-2.086;2022-10-30T17:11:17;14.20;99.90
7790;DHT22;3939;57.130;-2.086;2022-10-30T17:13:58;14.20;99.90
7790;DHT22;3939;57.130;-2.086;2022-10-30T17:16:35;14.20;99.90
7790;DHT22;3939;57.130;-2.086;2022-10-30T17:21:59;14.20;99.90
7790;DHT22;3939;57.130;-2.086;2022-10-30T17:24:31;14.20;99.90
7790;DHT22;3939;57.130;-2.086;2022-10-30T17:26:59;14.10;99.90
7790;DHT22;3939;57.130;-2.086;2022-10-30T17:29:43;14.10;99.90
7790;DHT22;3939;57.130;-2.086;2022-10-30T17:32:57;14.10;99.90
7790;DHT22;3939;57.130;-2.086;2022-10-30T17:35:01;14.10;99.90
7790;DHT22;3939;57.130;-2.086;2022-10-30T17:37:34;14.10;99.90
7790;DHT22;3939;57.130;-2.086;2022-10-30T17:39:59;14.10;99.90
7790;DHT22;3939;57.130;-2.086;2022-10-30T17:42:25;14.10;99.90
7790;DHT22;3939;57.130;-2.086;2022-10-30T17:44:50;14.10;99.90
7790;DHT22;3939;57.130;-2.086;2022-10-30T17:47:17;14.10;99.90
7790;DHT22;3939;57.130;-2.086;2022-10-30T17:49:44;14.10;99.90
7790;DHT22;3939;57.130;-2.086;2022-10-30T17:52:12;14.10;99.90
7790;DHT22;3939;57.130;-2.086;2022-10-30T17:54:38;14.00;99.90
7790;DHT22;3939;57.130;-2.086;2022-10-30T17:57:04;14.00;99.90
7790;DHT22;3939;57.130;-2.086;2022-10-30T17:59:29;14.00;99.90
7790;DHT22;3939;57.130;-2.086;2022-10-30T18:01:55;13.90;99.90
7790;DHT22;3939;57.130;-2.086;2022-10-30T18:04:21;13.90;99.90
7790;DHT22;3939;57.130;-2.086;2022-10-30T18:06:47;13.90;99.90
7790;DHT22;3939;57.130;-2.086;2022-10-30T18:09:13;13.90;99.90
7790;DHT22;3939;57.130;-2.086;2022-10-30T18:11:38;13.80;99.90
7790;DHT22;3939;57.130;-2.086;2022-10-30T18:14:04;13.80;99.90
7790;DHT22;3939;57.130;-2.086;2022-10-30T18:16:31;13.80;99.90
7790;DHT22;3939;57.130;-2.086;2022-10-30T18:18:57;13.80;99.90
7790;DHT22;3939;57.130;-2.086;2022-10-30T18:21:24;13.80;99.90
7790;DHT22;3939;57.130;-2.086;2022-10-30T18:23:52;13.80;99.90
7790;DHT22;3939;57.130;-2.086;2022-10-30T18:26:23;13.80;99.90
7790;DHT22;3939;57.130;-2.086;2022-10-30T18:28:50;13.90;99.90
7790;DHT22;3939;57.130;-2.086;2022-10-30T18:31:18;13.90;99.90
7790;DHT22;3939;57.130;-2.086;2022-10-30T18:33:47;14.00;99.90
7790;DHT22;3939;57.130;-2.086;2022-10-30T18:36:19;14.10;99.90
7790;DHT22;3939;57.130;-2.086;2022-10-30T18:38:45;14.10;99.90
7790;DHT22;3939;57.130;-2.086;2022-10-30T18:41:37;14.20;99.90
7790;DHT22;3939;57.130;-2.086;2022-10-30T18:44:02;14.20;99.90
7790;DHT22;3939;57.130;-2.086;2022-10-30T18:46:30;14.20;99.90
7790;DHT22;3939;57.130;-2.086;2022-10-30T18:48:58;14.20;99.90
7790;DHT22;3939;57.130;-2.086;2022-10-30T18:51:26;14.20;99.90
7790;DHT22;3939;57.130;-2.086;2022-10-30T18:53:52;14.20;99.90
7790;DHT22;3939;57.130;-2.086;2022-10-30T18:56:22;14.20;99.90
7790;DHT22;3939;57.130;-2.086;2022-10-30T18:58:49;14.20;99.90
7790;DHT22;3939;57.130;-2.086;2022-10-30T19:01:16;14.20;99.90
7790;DHT22;3939;57.130;-2.086;2022-10-30T19:03:49;14.20;99.90
7790;DHT22;3939;57.130;-2.086;2022-10-30T19:06:20;14.20;99.90
7790;DHT22;3939;57.130;-2.086;2022-10-30T19:08:47;14.10;99.90
7790;DHT22;3939;57.130;-2.086;2022-10-30T19:11:14;14.20;99.90
7790;DHT22;3939;57.130;-2.086;2022-10-30T19:13:40;14.10;99.90
7790;DHT22;3939;57.130;-2.086;2022-10-30T19:16:10;14.20;99.90
7790;DHT22;3939;57.130;-2.086;2022-10-30T19:18:36;14.20;99.90
7790;DHT22;3939;57.130;-2.086;2022-10-30T19:21:02;14.20;99.90
7790;DHT22;3939;57.130;-2.086;2022-10-30T19:23:28;14.20;99.90
7790;DHT22;3939;57.130;-2.086;2022-10-30T19:25:54;14.10;99.90
7790;DHT22;3939;57.130;-2.086;2022-10-30T19:28:20;14.10;99.90
7790;DHT22;3939;57.130;-2.086;2022-10-30T19:30:47;14.10;99.90
7790;DHT22;3939;57.130;-2.086;2022-10-30T19:33:27;14.10;99.90
7790;DHT22;3939;57.130;-2.086;2022-10-30T19:36:03;14.10;99.90
7790;DHT22;3939;57.130;-2.086;2022-10-30T19:38:32;14.10;99.90
7790;DHT22;3939;57.130;-2.086;2022-10-30T19:41:01;14.10;99.90
7790;DHT22;3939;57.130;-2.086;2022-10-30T19:43:33;14.10;99.90
7790;DHT22;3939;57.130;-2.086;2022-10-30T19:45:59;14.10;99.90
7790;DHT22;3939;57.130;-2.086;2022-10-30T19:48:25;14.00;99.90
7790;DHT22;3939;57.130;-2.086;2022-10-30T19:50:51;14.10;99.90
7790;DHT22;3939;57.130;-2.086;2022-10-30T19:53:17;14.00;99.90
7790;DHT22;3939;57.130;-2.086;2022-10-30T19:55:42;14.00;99.90
7790;DHT22;3939;57.130;-2.086;2022-10-30T19:58:15;14.10;99.90
7790;DHT22;3939;57.130;-2.086;2022-10-30T20:00:43;14.00;99.90
7790;DHT22;3939;57.130;-2.086;2022-10-30T20:03:29;14.00;99.90
7790;DHT22;3939;57.130;-2.086;2022-10-30T20:05:54;13.90;99.90
7790;DHT22;3939;57.130;-2.086;2022-10-30T20:08:24;13.90;99.90
7790;DHT22;3939;57.130;-2.086;2022-10-30T20:10:53;13.90;99.90
7790;DHT22;3939;57.130;-2.086;2022-10-30T20:13:20;13.90;99.90
7790;DHT22;3939;57.130;-2.086;2022-10-30T20:15:52;13.90;99.90
7790;DHT22;3939;57.130;-2.086;2022-10-30T20:18:25;13.90;99.90
7790;DHT22;3939;57.130;-2.086;2022-10-30T20:20:57;13.90;99.90
7790;DHT22;3939;57.130;-2.086;2022-10-30T20:23:24;13.80;99.90
7790;DHT22;3939;57.130;-2.086;2022-10-30T20:25:52;13.80;99.90
7790;DHT22;3939;57.130;-2.086;2022-10-30T20:28:33;13.80;99.90
7790;DHT22;3939;57.130;-2.086;2022-10-30T20:30:59;13.70;99.90
7790;DHT22;3939;57.130;-2.086;2022-10-30T20:33:26;13.70;99.90
7790;DHT22;3939;57.130;-2.086;2022-10-30T20:35:53;13.60;99.90
7790;DHT22;3939;57.130;-2.086;2022-10-30T20:38:21;13.60;99.90
7790;DHT22;3939;57.130;-2.086;2022-10-30T20:40:50;13.50;99.90
7790;DHT22;3939;57.130;-2.086;2022-10-30T20:43:19;13.50;99.90
7790;DHT22;3939;57.130;-2.086;2022-10-30T20:45:45;13.50;99.90
7790;DHT22;3939;57.130;-2.086;2022-10-30T20:48:12;13.40;99.90
7790;DHT22;3939;57.130;-2.086;2022-10-30T20:50:38;13.40;99.90
7790;DHT22;3939;57.130;-2.086;2022-10-30T20:53:04;13.40;99.90
7790;DHT22;3939;57.130;-2.086;2022-10-30T20:55:33;13.30;99.90
7790;DHT22;3939;57.130;-2.086;2022-10-30T20:57:59;13.30;99.90
7790;DHT22;3939;57.130;-2.086;2022-10-30T21:00:25;13.30;99.90
7790;DHT22;3939;57.130;-2.086;2022-10-30T21:02:50;13.30;99.90
7790;DHT22;3939;57.130;-2.086;2022-10-30T21:05:16;13.30;99.90
7790;DHT22;3939;57.130;-2.086;2022-10-30T21:07:42;13.30;99.90
7790;DHT22;3939;57.130;-2.086;2022-10-30T21:10:08;13.30;99.90
7790;DHT22;3939;57.130;-2.086;2022-10-30T21:12:33;13.30;99.90
7790;DHT22;3939;57.130;-2.086;2022-10-30T21:14:59;13.30;99.90
7790;DHT22;3939;57.130;-2.086;2022-10-30T21:17:29;13.30;99.90
7790;DHT22;3939;57.130;-2.086;2022-10-30T21:19:55;13.20;99.90
7790;DHT22;3939;57.130;-2.086;2022-10-30T21:22:21;13.20;99.90
7790;DHT22;3939;57.130;-2.086;2022-10-30T21:24:55;13.20;99.90
7790;DHT22;3939;57.130;-2.086;2022-10-30T21:27:20;13.20;99.90
7790;DHT22;3939;57.130;-2.086;2022-10-30T21:29:46;13.20;99.90
7790;DHT22;3939;57.130;-2.086;2022-10-30T21:32:12;13.20;99.90
7790;DHT22;3939;57.130;-2.086;2022-10-30T21:34:38;13.20;99.90
7790;DHT22;3939;57.130;-2.086;2022-10-30T21:37:07;13.30;99.90
7790;DHT22;3939;57.130;-2.086;2022-10-30T21:39:35;13.30;99.90
7790;DHT22;3939;57.130;-2.086;2022-10-30T21:42:01;13.30;99.90
7790;DHT22;3939;57.130;-2.086;2022-10-30T21:44:29;13.20;99.90
7790;DHT22;3939;57.130;-2.086;2022-10-30T21:46:55;13.20;99.90
7790;DHT22;3939;57.130;-2.086;2022-10-30T21:49:20;13.20;99.90
7790;DHT22;3939;57.130;-2.086;2022-10-30T21:51:46;13.20;99.90
7790;DHT22;3939;57.130;-2.086;2022-10-30T21:54:17;13.20;99.90
7790;DHT22;3939;57.130;-2.086;2022-10-30T21:56:47;13.20;99.90
7790;DHT22;3939;57.130;-2.086;2022-10-30T21:59:15;13.20;99.90
7790;DHT22;3939;57.130;-2.086;2022-10-30T22:01:41;13.20;99.90
7790;DHT22;3939;57.130;-2.086;2022-10-30T22:04:09;13.20;99.90
7790;DHT22;3939;57.130;-2.086;2022-10-30T22:06:42;13.10;99.90
7790;DHT22;3939;57.130;-2.086;2022-10-30T22:09:09;13.10;99.90